Time;durP1;ratioP1;P1;durP2;ratioP2;P2;SDS_P1;SDS_P2;PMS_P1;PMS_P2;Temp;Humidity;BMP_temperature;BMP_pressure;BME280_temperature;BME280_humidity;BME280_pressure;Samples;Min_cycle;Max_cycle;Signal;HPM_P1;HPM_P2
2023/01/18 00:00:49;;;;;;;;;30.80;27.20;;;;;4.72;59.51;99096.06;1995142;28;3596040;-79
2023/01/18 00:02:00;;;;;;;;;34.00;27.00;;;;;4.73;59.98;99092.59;1963858;28;2859652;-78
2023/01/18 00:03:12;;;;;;;;;33.33;28.00;;;;;4.72;59.28;99100.44;1984172;28;3601285;-78
2023/01/18 00:04:23;;;;;;;;;29.50;25.50;;;;;4.70;59.24;99100.50;1987237;28;2849216;-78
2023/01/18 00:05:39;;;;;;;;;35.00;29.33;;;;;4.68;59.67;99098.84;1968747;28;3605439;-78
2023/01/18 00:06:51;;;;;;;;;28.00;22.00;;;;;4.66;59.56;99105.88;1952793;28;3602072;-79
2023/01/18 00:08:03;;;;;;;;;25.80;22.20;;;;;4.64;59.38;99107.66;1995289;28;3572083;-78
2023/01/18 00:09:15;;;;;;;;;35.60;27.00;;;;;4.63;59.71;99105.97;1992136;28;3601250;-78
2023/01/18 00:10:27;;;;;;;;;29.80;26.00;;;;;4.61;59.41;99106.88;1978128;28;3583565;-78
2023/01/18 00:11:39;;;;;;;;;28.33;24.33;;;;;4.60;59.49;99106.91;2001015;28;3588805;-79
2023/01/18 00:12:51;;;;;;;;;28.67;24.00;;;;;4.59;59.25;99110.44;1984759;28;3606486;-79
2023/01/18 00:14:03;;;;;;;;;28.33;24.33;;;;;4.55;59.56;99107.06;1996017;28;3603347;-79
2023/01/18 00:15:15;;;;;;;;;36.40;26.20;;;;;4.53;59.33;99106.28;1978622;28;3608528;-78
2023/01/18 00:16:27;;;;;;;;;24.67;24.00;;;;;4.53;59.67;99110.63;1952511;28;3579451;-78
2023/01/18 00:17:46;;;;;;;;;27.80;23.40;;;;;4.53;59.50;99110.63;2000278;28;3591932;-78
2023/01/18 00:18:59;;;;;;;;;30.33;27.33;;;;;4.53;59.64;99113.22;1984247;28;3596054;-78
2023/01/18 00:20:10;;;;;;;;;25.67;23.67;;;;;4.50;59.02;99112.44;1991453;28;3584632;-78
2023/01/18 00:21:24;;;;;;;;;30.33;24.33;;;;;4.51;59.28;99126.31;2001172;28;3595030;-79
2023/01/18 00:22:36;;;;;;;;;30.67;24.67;;;;;4.48;59.26;99119.44;1982832;28;3584607;-79
2023/01/18 00:23:49;;;;;;;;;24.83;19.67;;;;;4.46;58.65;99121.25;2015746;28;2849251;-79
2023/01/18 00:25:01;;;;;;;;;26.67;19.67;;;;;4.45;58.82;99127.34;1965358;28;3582919;-78
2023/01/18 00:26:13;;;;;;;;;26.33;22.00;;;;;4.43;58.51;99126.56;2000663;28;3577308;-78
2023/01/18 00:27:25;;;;;;;;;30.40;24.00;;;;;4.39;58.72;99127.56;2004087;28;3587677;-78
2023/01/18 00:28:37;;;;;;;;;29.33;25.33;;;;;4.40;59.06;99131.84;1974347;28;3582551;-78
2023/01/18 00:29:49;;;;;;;;;30.33;25.00;;;;;4.38;58.67;99134.53;1976701;28;3604425;-79
2023/01/18 00:31:01;;;;;;;;;24.33;19.33;;;;;4.38;58.80;99128.47;1991424;28;3567922;-78
2023/01/18 00:32:13;;;;;;;;;28.00;23.33;;;;;4.35;58.72;99136.34;1976932;28;3587732;-78
2023/01/18 00:33:25;;;;;;;;;22.33;18.67;;;;;4.33;58.74;99138.16;1990008;28;2825254;-79
2023/01/18 00:34:36;;;;;;;;;23.00;21.00;;;;;4.30;58.48;99130.47;1978026;28;2829534;-79
2023/01/18 00:35:58;;;;;;;;;18.67;18.33;;;;;4.28;58.56;99133.97;1976930;28;3565257;-79
2023/01/18 00:37:09;;;;;;;;;25.33;19.33;;;;;4.25;58.63;99138.41;1984135;28;3581510;-79
2023/01/18 00:38:21;;;;;;;;;26.00;22.67;;;;;4.21;59.30;99137.69;1992533;28;3579766;-78
2023/01/18 00:39:33;;;;;;;;;26.67;22.00;;;;;4.20;58.93;99135.97;1994154;28;3574183;-78
2023/01/18 00:40:45;;;;;;;;;25.67;22.00;;;;;4.19;58.76;99144.69;1999586;28;2834731;-78
2023/01/18 00:43:38;;;;;;;;;22.00;19.00;;;;;4.21;59.83;99142.03;1984424;28;2825293;-78
2023/01/18 00:44:49;;;;;;;;;24.50;24.00;;;;;4.21;58.33;99142.03;1983723;28;2841959;-78
2023/01/18 00:46:00;;;;;;;;;22.50;18.50;;;;;4.19;59.36;99152.47;1982782;28;2831472;-78
2023/01/18 00:47:12;;;;;;;;;23.33;19.67;;;;;4.19;59.12;99152.47;1979772;28;3574190;-78
2023/01/18 00:48:24;;;;;;;;;26.00;22.40;;;;;4.18;59.42;99139.50;2006622;28;1848962;-78
2023/01/18 00:49:37;;;;;;;;;22.83;20.50;;;;;4.18;58.63;99140.38;2004498;28;1846266;-78
2023/01/18 00:50:48;;;;;;;;;25.00;21.33;;;;;4.18;58.67;99142.09;1961459;28;3577324;-78
2023/01/18 00:51:59;;;;;;;;;23.50;19.50;;;;;4.19;58.84;99136.03;2000056;28;2830502;-78
2023/01/18 00:53:11;;;;;;;;;25.33;20.33;;;;;4.16;58.95;99148.22;1977974;28;2834149;-78
2023/01/18 00:54:23;;;;;;;;;23.00;18.67;;;;;4.15;59.09;99145.66;1979603;28;2835675;-78
2023/01/18 00:55:36;;;;;;;;;22.50;21.50;;;;;4.16;58.77;99152.56;2004703;28;1839927;-78
2023/01/18 00:56:49;;;;;;;;;23.80;19.80;;;;;4.15;58.91;99150.84;2000838;28;2823263;-78
2023/01/18 00:58:01;;;;;;;;;21.00;20.00;;;;;4.15;59.04;99148.25;1977013;28;2839979;-78
2023/01/18 00:59:12;;;;;;;;;22.33;19.00;;;;;4.17;59.13;99151.69;1976678;28;3560689;-78
2023/01/18 01:00:25;;;;;;;;;23.33;18.33;;;;;4.16;58.66;99156.03;1996735;28;2825261;-78
2023/01/18 01:01:37;;;;;;;;;24.00;19.33;;;;;4.16;59.46;99157.78;1983978;28;2832654;-79
2023/01/18 01:02:50;;;;;;;;;25.50;21.50;;;;;4.16;59.37;99160.38;1984179;28;2836733;-78
2023/01/18 01:07:02;;;;;;;;;23.00;14.17;;;;;4.20;59.48;99171.56;1986448;28;1837825;-78
2023/01/18 01:08:17;;;;;;;;;19.33;16.00;;;;;4.19;59.49;99170.69;1961188;28;2821161;-78
2023/01/18 01:09:28;;;;;;;;;26.00;21.50;;;;;4.21;59.33;99168.03;1976045;28;2846099;-79
2023/01/18 01:10:45;;;;;;;;;28.50;21.83;;;;;4.20;59.00;99180.19;1985666;28;1839894;-78
2023/01/18 01:27:04;;;;;;;;;16.00;15.67;;;;;4.13;59.78;99192.53;1984185;28;3563790;-78
2023/01/18 01:28:16;;;;;;;;;26.60;21.60;;;;;4.11;59.34;99190.88;1972334;28;3577292;-78
2023/01/18 01:29:28;;;;;;;;;18.33;17.00;;;;;4.11;59.47;99199.53;2000412;28;2826380;-79
2023/01/18 01:30:41;;;;;;;;;23.80;20.40;;;;;4.10;58.96;99202.19;2010419;28;2837707;-78
2023/01/18 01:31:52;;;;;;;;;22.33;20.33;;;;;4.08;59.53;99203.97;1983457;28;3581474;-78
2023/01/18 01:33:04;;;;;;;;;32.67;21.67;;;;;4.07;59.62;99205.75;1998109;28;2851368;-78
2023/01/18 01:34:18;;;;;;;;;28.00;23.67;;;;;4.06;59.48;99209.22;2002729;28;2854411;-78
2023/01/18 01:35:29;;;;;;;;;26.33;22.67;;;;;4.08;59.49;99209.16;1981567;28;3583577;-80
2023/01/18 01:36:41;;;;;;;;;19.00;17.33;;;;;4.06;59.58;99201.41;1996185;28;2829456;-78
2023/01/18 01:37:52;;;;;;;;;22.33;18.67;;;;;4.06;59.83;99209.22;1976139;28;2839986;-78
2023/01/18 01:39:05;;;;;;;;;21.40;17.40;;;;;4.07;59.26;99207.47;1994890;28;2823176;-78
2023/01/18 01:40:16;;;;;;;;;19.00;16.50;;;;;4.08;59.72;99203.97;1952193;28;2829500;-78
2023/01/18 01:41:33;;;;;;;;;19.00;15.00;;;;;4.06;59.50;99198.81;1987378;28;1837794;-78
2023/01/18 01:42:46;;;;;;;;;22.17;17.83;;;;;4.07;59.38;99204.88;1987829;28;1844063;-78
2023/01/18 01:44:24;;;;;;;;;18.50;18.00;;;;;4.07;59.22;99204.88;1953949;28;2835694;-79
2023/01/18 01:45:35;;;;;;;;;23.00;18.00;;;;;4.05;59.13;99210.09;1941967;28;3557545;-79
2023/01/18 01:46:55;;;;;;;;;23.00;18.00;;;;;4.05;59.29;99223.97;2000672;28;2822524;-79
2023/01/18 01:48:09;;;;;;;;;17.50;16.00;;;;;4.03;59.23;99223.16;1958758;28;2808589;-79
2023/01/18 01:49:25;;;;;;;;;21.83;18.67;;;;;4.02;59.31;99228.44;1982644;28;1841984;-78
2023/01/18 01:50:38;;;;;;;;;25.50;21.00;;;;;4.01;59.36;99230.16;1953506;28;2833035;-78
2023/01/18 01:52:06;;;;;;;;;19.50;16.17;;;;;4.01;59.09;99235.38;1982957;28;1837896;-78
2023/01/18 01:53:16;;;;;;;;;19.50;19.00;;;;;4.00;59.33;99235.44;1953955;28;2826301;-78
2023/01/18 01:54:33;;;;;;;;;19.33;16.67;;;;;4.00;59.10;99236.25;1966285;28;2816902;-78
2023/01/18 01:55:44;;;;;;;;;30.00;19.50;;;;;3.99;59.62;99239.75;1987074;28;2844003;-78
2023/01/18 01:57:04;;;;;;;;;24.33;18.00;;;;;3.98;59.51;99238.06;1976496;28;3562729;-79
2023/01/18 01:58:22;;;;;;;;;18.00;18.00;;;;;3.98;59.53;99235.44;1983917;28;2822142;-78
2023/01/18 01:59:39;;;;;;;;;20.00;15.50;;;;;3.98;59.75;99245.00;1960401;28;2816949;-78
2023/01/18 02:00:52;;;;;;;;;20.33;17.00;;;;;3.98;58.99;99238.06;1961784;28;2824253;-78
2023/01/18 02:02:04;;;;;;;;;19.00;16.67;;;;;3.98;58.99;99245.84;1983814;28;2821153;-78
2023/01/18 02:03:19;;;;;;;;;16.50;16.50;;;;;3.98;59.05;99245.00;1983289;28;2807531;-78
2023/01/18 02:04:32;;;;;;;;;19.80;18.60;;;;;3.98;59.31;99234.59;1974139;28;2825230;-78
2023/01/18 02:05:49;;;;;;;;;20.80;17.60;;;;;3.97;59.29;99238.97;1973163;28;2817927;-78
2023/01/18 02:07:01;;;;;;;;;26.67;17.33;;;;;4.00;59.50;99240.63;1961685;28;3581597;-78
2023/01/18 02:08:21;;;;;;;;;28.00;20.67;;;;;4.00;59.02;99248.44;1998885;28;3585636;-77
2023/01/18 02:09:31;;;;;;;;;21.50;18.00;;;;;4.00;59.18;99244.06;1983639;28;2827374;-78
2023/01/18 02:10:43;;;;;;;;;22.33;19.00;;;;;4.01;59.41;99244.91;1976930;28;3564769;-78
2023/01/18 02:11:56;;;;;;;;;22.17;19.17;;;;;4.03;59.47;99258.72;2016096;28;2831465;-78
2023/01/18 02:13:10;;;;;;;;;23.67;20.00;;;;;4.04;58.90;99252.63;1984704;28;3575244;-78
2023/01/18 02:14:25;;;;;;;;;27.67;20.83;;;;;4.06;59.43;99258.63;2015884;28;1846135;-78
2023/01/18 02:15:49;;;;;;;;;17.00;17.00;;;;;4.07;58.77;99254.28;1957658;28;3559911;-79
2023/01/18 02:17:27;;;;;;;;;17.00;16.00;;;;;4.06;58.88;99253.44;1983678;28;2810711;-77
2023/01/18 02:18:51;;;;;;;;;24.17;19.17;;;;;4.06;58.75;99261.22;1981284;28;1834732;-78
2023/01/18 02:20:18;;;;;;;;;21.50;21.50;;;;;4.05;59.41;99265.56;1960709;28;2834676;-79
2023/01/18 02:21:56;;;;;;;;;26.50;20.50;;;;;4.04;59.27;99263.03;1961571;28;2833678;-78
2023/01/18 02:23:28;;;;;;;;;16.17;14.00;;;;;4.02;58.89;99259.63;1982043;28;1830588;-78
2023/01/18 02:25:06;;;;;;;;;14.00;12.00;;;;;4.03;58.91;99262.16;1954173;28;3532553;-78
2023/01/18 02:26:41;;;;;;;;;24.50;19.00;;;;;4.04;58.72;99265.63;1976762;28;2823175;-78
2023/01/18 02:28:16;;;;;;;;;15.00;14.50;;;;;4.02;58.99;99263.09;1961095;28;2804437;-78
2023/01/18 02:29:48;;;;;;;;;17.17;17.17;;;;;4.02;58.92;99272.63;1980543;28;1842009;-78
2023/01/18 02:31:02;;;;;;;;;23.83;16.83;;;;;4.01;58.50;99266.56;1981953;28;1830528;-78
2023/01/18 02:33:01;;;;;;;;;25.00;18.83;;;;;4.00;58.95;99271.81;1987754;28;1835723;-78
2023/01/18 02:34:40;;;;;;;;;23.67;19.17;;;;;4.00;58.90;99271.81;1973911;28;1846167;-78
2023/01/18 02:35:55;;;;;;;;;14.00;14.00;;;;;4.00;58.88;99280.44;1960703;28;2802903;-78
2023/01/18 02:37:09;;;;;;;;;16.00;11.00;;;;;3.98;58.58;99271.84;1983140;28;3545188;-78
2023/01/18 02:38:30;;;;;;;;;16.33;16.33;;;;;3.98;58.83;99277.06;2021895;28;1836780;-78
2023/01/18 02:39:40;;;;;;;;;16.50;15.50;;;;;4.00;59.01;99282.22;1966149;28;2815932;-78
2023/01/18 02:41:11;;;;;;;;;18.50;15.00;;;;;4.00;58.57;99285.66;1973000;28;2810669;-78
2023/01/18 02:47:14;;;;;;;;;15.00;14.50;;;;;4.01;58.64;99283.91;1979254;28;2818997;-78
2023/01/18 02:48:41;;;;;;;;;16.75;14.75;;;;;4.00;58.46;99275.25;1975671;28;1855564;-78
2023/01/18 02:49:52;;;;;;;;;14.50;13.00;;;;;3.99;58.49;99273.56;1984915;28;2797126;-78
2023/01/18 02:51:05;;;;;;;;;15.60;12.20;;;;;3.98;59.13;99276.19;2012212;28;1825378;-78
2023/01/18 02:52:52;;;;;;;;;15.67;15.33;;;;;3.98;58.86;99277.06;1962473;28;3552648;-78
2023/01/18 02:54:07;;;;;;;;;15.00;13.00;;;;;3.98;59.30;99274.44;1945003;28;2801307;-78
2023/01/18 02:55:26;;;;;;;;;10.50;10.50;;;;;4.00;58.98;99288.25;1968707;28;2789847;-78
2023/01/18 02:56:44;;;;;;;;;14.00;13.00;;;;;4.01;59.25;99287.38;1978428;28;3533598;-77
2023/01/18 02:58:17;;;;;;;;;20.33;14.00;;;;;4.02;58.83;99290.81;1984732;28;3542926;-77
2023/01/18 02:59:36;;;;;;;;;11.67;10.33;;;;;4.01;58.60;99289.97;1985080;28;3503371;-78
2023/01/18 03:00:56;;;;;;;;;11.00;10.00;;;;;4.02;59.12;99288.22;1980783;28;2788806;-78
2023/01/18 03:02:15;;;;;;;;;17.67;12.00;;;;;4.01;59.03;99284.78;1978478;28;3520023;-78
2023/01/18 03:03:27;;;;;;;;;14.00;12.00;;;;;4.04;59.23;99283.81;1982597;28;3515868;-78
2023/01/18 03:04:53;;;;;;;;;9.33;9.33;;;;;4.05;58.81;99290.72;1986200;28;3482605;-78
2023/01/18 03:06:07;;;;;;;;;15.00;12.50;;;;;4.06;59.38;99295.03;2003915;28;1850258;-78
2023/01/18 03:07:23;;;;;;;;;12.33;10.00;;;;;4.07;59.75;99290.69;1984381;28;3499226;-78
2023/01/18 03:08:43;;;;;;;;;15.50;11.25;;;;;4.08;59.26;99303.63;1998870;28;1840926;-78
2023/01/18 03:09:57;;;;;;;;;13.67;11.67;;;;;4.08;58.84;99297.56;1984390;28;3515863;-78
2023/01/18 03:11:18;;;;;;;;;16.25;10.00;;;;;4.07;58.74;99301.09;1999564;28;1854451;-78
2023/01/18 03:12:45;;;;;;;;;9.33;9.33;;;;;4.05;59.15;99304.56;2004110;28;2743002;-78
2023/01/18 03:14:08;;;;;;;;;9.67;8.33;;;;;4.06;58.75;99305.44;1970032;28;1839818;-78
2023/01/18 03:15:45;;;;;;;;;9.75;8.00;;;;;4.05;58.78;99309.78;1971089;28;1833634;-78
2023/01/18 03:17:09;;;;;;;;;15.00;10.67;;;;;4.06;59.23;99310.63;1982888;28;3503363;-78
2023/01/18 03:19:00;;;;;;;;;12.67;10.67;;;;;4.05;59.45;99311.50;1977422;28;3501286;-78
2023/01/18 03:20:16;;;;;;;;;9.50;8.17;;;;;4.03;59.23;99314.19;2011731;28;2742978;-78
2023/01/18 03:21:37;;;;;;;;;10.00;9.67;;;;;4.04;58.62;99320.22;1985617;28;2764860;-77
2023/01/18 03:24:20;;;;;;;;;16.50;12.75;;;;;4.03;59.22;99324.56;2001990;28;1844000;-77
2023/01/18 03:25:47;;;;;;;;;14.33;9.00;;;;;4.01;58.29;99313.38;2000662;28;1829417;-78
2023/01/18 03:35:06;;;;;;;;;11.00;9.00;;;;;3.99;58.24;99322.09;1981522;28;2758614;-77
2023/01/18 03:36:23;;;;;;;;;11.00;9.67;;;;;3.98;58.42;99325.59;1983708;28;3499186;-77
2023/01/18 03:37:42;;;;;;;;;9.00;8.00;;;;;3.99;58.55;99329.91;2012083;28;2730459;-78
2023/01/18 03:38:59;;;;;;;;;12.33;9.67;;;;;4.01;58.39;99328.97;1981795;28;3492952;-78
2023/01/18 03:40:16;;;;;;;;;10.33;9.00;;;;;4.00;58.84;99324.66;1971851;28;2764971;-78
2023/01/18 03:41:32;;;;;;;;;8.33;8.33;;;;;4.02;58.64;99325.50;1986273;28;2739855;-78
2023/01/18 03:43:00;;;;;;;;;10.33;10.00;;;;;4.04;58.41;99331.50;1977833;28;3502323;-78
2023/01/18 03:44:29;;;;;;;;;10.33;10.33;;;;;4.03;58.41;99329.78;1978484;28;3511705;-78
2023/01/18 03:45:46;;;;;;;;;13.00;10.00;;;;;4.04;57.98;99333.22;1987637;28;2766019;-78
2023/01/18 03:46:59;;;;;;;;;9.33;8.67;;;;;4.04;58.68;99328.03;2004079;28;2732569;-78
2023/01/18 03:48:10;;;;;;;;;11.33;9.67;;;;;4.05;59.01;99329.72;1977722;28;3492960;-78
2023/01/18 03:49:26;;;;;;;;;9.50;8.17;;;;;4.04;58.58;99333.22;2003614;28;2740960;-77
2023/01/18 03:50:49;;;;;;;;;9.67;8.00;;;;;4.03;58.72;99334.97;2011357;28;2749212;-78
2023/01/18 03:52:15;;;;;;;;;9.50;7.67;;;;;4.04;58.51;99339.28;1989136;28;2740922;-78
2023/01/18 03:53:40;;;;;;;;;8.33;8.17;;;;;4.05;59.44;99342.72;2004626;28;2733646;-77
2023/01/18 03:54:53;;;;;;;;;11.67;9.00;;;;;4.07;59.51;99350.50;1985027;28;3483578;-77
2023/01/18 03:56:19;;;;;;;;;11.00;9.50;;;;;4.09;59.26;99356.50;2003245;28;2763803;-78
2023/01/18 03:57:51;;;;;;;;;10.67;10.67;;;;;4.09;58.78;99356.50;1953190;28;3507546;-77
2023/01/18 03:59:06;;;;;;;;;8.67;8.67;;;;;4.08;59.00;99360.84;2004198;28;2751334;-78
2023/01/18 04:00:17;;;;;;;;;11.00;9.33;;;;;4.09;59.02;99366.91;1984214;28;3494041;-77
2023/01/18 04:01:28;;;;;;;;;10.67;10.00;;;;;4.09;58.12;99361.72;2010072;28;1848722;-78
2023/01/18 04:02:42;;;;;;;;;12.00;9.00;;;;;4.09;58.09;99372.09;1981600;28;2758595;-78
2023/01/18 04:03:52;;;;;;;;;12.00;10.00;;;;;4.04;58.13;99370.50;1991496;28;3505455;-78
2023/01/18 04:05:04;;;;;;;;;11.00;9.00;;;;;4.04;58.48;99367.91;1991645;28;2767482;-77
2023/01/18 04:06:15;;;;;;;;;10.00;9.00;;;;;4.03;58.58;99367.91;1978032;28;2762855;-77
2023/01/18 04:07:26;;;;;;;;;9.67;9.00;;;;;4.04;59.05;99370.50;2002987;28;2752337;-78
2023/01/18 04:08:36;;;;;;;;;12.00;9.00;;;;;4.02;58.74;99371.44;1955734;28;3485704;-77
2023/01/18 04:09:47;;;;;;;;;14.67;10.00;;;;;4.05;58.94;99377.38;1992301;28;3502322;-77
2023/01/18 04:10:58;;;;;;;;;13.67;9.00;;;;;4.07;58.87;99379.09;1992820;28;2761138;-77
2023/01/18 04:12:09;;;;;;;;;11.00;9.00;;;;;4.09;58.94;99379.91;1997634;28;3487752;-78
2023/01/18 04:13:20;;;;;;;;;8.00;7.00;;;;;4.12;58.72;99387.63;1997010;28;3455462;-77
2023/01/18 04:14:31;;;;;;;;;11.00;9.33;;;;;4.12;58.73;99385.03;2008913;28;2763814;-77
2023/01/18 04:15:42;;;;;;;;;14.50;9.50;;;;;4.12;58.97;99387.63;1962045;28;2781547;-78
2023/01/18 04:16:53;;;;;;;;;11.00;10.33;;;;;4.12;58.64;99379.84;2011976;28;1839934;-78
2023/01/18 04:18:04;;;;;;;;;16.00;13.33;;;;;4.12;58.09;99387.63;1962266;28;3523143;-78
2023/01/18 04:19:15;;;;;;;;;18.33;15.67;;;;;4.11;58.54;99391.13;2001921;28;1855494;-78
2023/01/18 04:20:26;;;;;;;;;16.00;15.00;;;;;4.08;58.39;99393.78;1961241;28;3524180;-78
2023/01/18 04:21:37;;;;;;;;;10.00;8.67;;;;;4.07;58.65;99397.31;2007188;28;3480440;-78
2023/01/18 04:22:53;;;;;;;;;17.75;15.25;;;;;4.05;58.40;99408.59;2011533;28;1845031;-77
2023/01/18 04:24:04;;;;;;;;;14.00;13.50;;;;;4.04;58.58;99412.09;1998626;28;1848234;-78
2023/01/18 04:25:15;;;;;;;;;14.00;12.50;;;;;4.01;58.69;99406.97;1984449;28;2787771;-78
2023/01/18 04:26:26;;;;;;;;;14.33;11.00;;;;;4.00;58.69;99410.47;2013535;28;1858707;-78
2023/01/18 04:27:37;;;;;;;;;19.50;14.00;;;;;4.03;58.60;99409.53;1962455;28;2817927;-78
2023/01/18 04:28:48;;;;;;;;;15.00;12.50;;;;;4.03;58.59;99420.78;1976943;28;2814830;-78
2023/01/18 04:29:59;;;;;;;;;14.00;12.00;;;;;4.02;58.71;99411.28;1970990;28;2812736;-78
2023/01/18 04:31:10;;;;;;;;;15.00;14.00;;;;;4.04;58.81;99419.91;1964394;28;2813797;-78
2023/01/18 04:32:22;;;;;;;;;11.00;10.00;;;;;4.03;58.35;99418.19;2010789;28;1837750;-78
2023/01/18 04:33:35;;;;;;;;;15.50;14.83;;;;;4.03;58.53;99420.78;2014076;28;1837789;-78
2023/01/18 04:34:45;;;;;;;;;18.00;17.00;;;;;4.03;58.47;99422.53;1961806;28;2817975;-78
2023/01/18 04:35:56;;;;;;;;;13.50;13.00;;;;;4.00;58.74;99415.66;2002163;28;2814847;-78
2023/01/18 04:37:07;;;;;;;;;15.00;11.50;;;;;4.02;58.31;99426.03;1985292;28;2806466;-77
2023/01/18 04:38:19;;;;;;;;;17.00;15.00;;;;;4.01;58.62;99422.56;1980849;28;2799237;-78
2023/01/18 04:39:33;;;;;;;;;18.00;15.86;;;;;4.03;58.70;99431.19;2006333;28;1831596;-78
2023/01/18 04:40:46;;;;;;;;;21.20;17.60;;;;;4.04;58.72;99425.09;2003625;28;2825215;-78
2023/01/18 04:41:57;;;;;;;;;19.50;17.00;;;;;4.05;58.83;99432.00;1971602;28;2824269;-77
2023/01/18 04:43:08;;;;;;;;;21.00;15.00;;;;;4.06;59.08;99430.25;1969898;28;2809606;-77
2023/01/18 04:44:20;;;;;;;;;22.00;14.40;;;;;4.08;59.11;99427.59;1979094;28;1845157;-78
2023/01/18 04:45:31;;;;;;;;;12.00;10.67;;;;;4.08;60.16;99435.41;1982002;28;3506481;-77
2023/01/18 04:46:42;;;;;;;;;17.00;16.00;;;;;4.08;58.59;99438.00;1999079;28;2814874;-78
2023/01/18 04:47:56;;;;;;;;;20.14;17.00;;;;;4.09;59.40;99442.31;1980782;28;1829473;-78
2023/01/18 04:49:14;;;;;;;;;19.50;17.50;;;;;4.09;58.80;99442.31;1976713;28;2827337;-77
2023/01/18 04:50:24;;;;;;;;;15.67;14.00;;;;;4.08;58.62;99444.06;1952811;28;3545010;-78
2023/01/18 04:51:37;;;;;;;;;17.25;16.50;;;;;4.08;58.87;99443.19;2002596;28;1842064;-77
2023/01/18 04:52:48;;;;;;;;;20.50;19.00;;;;;4.07;58.59;99449.31;1954280;28;2824586;-78
2023/01/18 04:53:59;;;;;;;;;18.50;15.00;;;;;4.05;58.92;99447.59;1960268;28;2817972;-77
2023/01/18 04:55:14;;;;;;;;;13.33;7.00;;;;;4.06;59.21;99448.47;1976195;28;3491879;-77
2023/01/18 04:56:24;;;;;;;;;19.00;16.50;;;;;4.07;59.26;99444.13;1979444;28;2823135;-77
2023/01/18 04:57:35;;;;;;;;;21.50;15.00;;;;;4.07;59.33;99452.78;1976475;28;2810676;-78
2023/01/18 04:58:46;;;;;;;;;17.00;17.00;;;;;4.07;59.31;99447.56;1977337;28;2815851;-77
2023/01/18 04:59:59;;;;;;;;;19.75;17.25;;;;;4.07;59.36;99447.56;1979822;28;1844079;-77
2023/01/18 05:01:13;;;;;;;;;18.50;16.00;;;;;4.08;59.49;99451.00;1983450;28;1839917;-77
2023/01/18 05:02:23;;;;;;;;;20.00;20.00;;;;;4.08;60.06;99457.06;1961039;28;2821096;-78
2023/01/18 05:03:36;;;;;;;;;23.00;17.00;;;;;4.07;59.75;99452.78;1975438;28;2828340;-78
2023/01/18 05:04:47;;;;;;;;;17.00;14.00;;;;;4.05;60.24;99455.41;1961730;28;2816882;-78
2023/01/18 05:05:58;;;;;;;;;24.00;17.50;;;;;4.05;60.00;99460.59;1970402;28;2836190;-78
2023/01/18 05:07:11;;;;;;;;;20.00;17.50;;;;;4.04;60.08;99451.09;1992733;28;2833592;-78
2023/01/18 05:08:23;;;;;;;;;22.33;16.00;;;;;4.04;60.02;99458.91;1976854;28;2827478;-78
2023/01/18 05:09:33;;;;;;;;;18.00;15.50;;;;;4.03;60.49;99451.13;1982379;28;2812758;-78
2023/01/18 05:10:45;;;;;;;;;23.00;17.25;;;;;4.01;60.00;99453.78;1985210;28;1834650;-78
2023/01/18 05:11:55;;;;;;;;;20.00;17.00;;;;;4.01;60.09;99455.53;1958273;28;2827302;-78
2023/01/18 05:13:06;;;;;;;;;24.50;19.00;;;;;3.99;60.43;99457.31;1969309;28;2837742;-78
2023/01/18 05:14:18;;;;;;;;;22.33;20.67;;;;;3.97;60.29;99459.97;1971306;28;3571011;-77
2023/01/18 05:15:29;;;;;;;;;17.00;16.50;;;;;3.96;60.01;99457.38;2008833;28;1833725;-77
2023/01/18 05:16:40;;;;;;;;;15.00;12.00;;;;;3.95;60.39;99459.16;1961072;28;2810027;-77
2023/01/18 05:17:51;;;;;;;;;23.00;18.50;;;;;3.93;60.56;99463.53;1980807;28;1841992;-77
2023/01/18 05:19:05;;;;;;;;;20.57;18.00;;;;;3.90;60.50;99456.66;1974555;28;1839871;-78
2023/01/18 05:20:16;;;;;;;;;18.00;14.00;;;;;3.88;60.26;99461.03;1975734;28;2823215;-77
2023/01/18 05:21:27;;;;;;;;;19.60;17.00;;;;;3.86;60.66;99464.56;1978752;28;1837747;-77
2023/01/18 05:22:39;;;;;;;;;26.67;20.33;;;;;3.85;60.36;99463.75;1974726;28;3573102;-77
2023/01/18 05:23:51;;;;;;;;;21.67;17.67;;;;;3.82;60.22;99469.00;1992296;28;2824313;-77
2023/01/18 05:25:06;;;;;;;;;24.00;19.00;;;;;3.80;60.72;99471.63;1976643;28;3575249;-77
2023/01/18 05:26:22;;;;;;;;;22.50;16.50;;;;;3.79;60.77;99469.94;1983215;28;2824221;-77
2023/01/18 05:27:34;;;;;;;;;23.00;19.67;;;;;3.77;60.60;99469.13;1962045;28;2821557;-77
2023/01/18 05:28:45;;;;;;;;;22.50;17.00;;;;;3.77;60.61;99470.88;1982788;28;2835667;-77
2023/01/18 05:29:56;;;;;;;;;23.33;20.00;;;;;3.76;60.85;99475.22;1957037;28;3575180;-77
2023/01/18 05:31:08;;;;;;;;;21.00;18.50;;;;;3.74;61.26;99473.53;1976413;28;2823163;-77
2023/01/18 05:32:19;;;;;;;;;23.00;21.50;;;;;3.74;61.27;99471.81;1959154;28;2835635;-77
2023/01/18 05:33:30;;;;;;;;;25.67;18.67;;;;;3.74;61.08;99481.34;1966994;28;2839979;-77
2023/01/18 05:34:42;;;;;;;;;24.33;20.00;;;;;3.71;61.07;99474.47;1983725;28;2837928;-77
2023/01/18 05:35:54;;;;;;;;;15.33;13.67;;;;;3.71;61.29;99474.47;1983257;28;3526308;-77
2023/01/18 05:37:07;;;;;;;;;23.67;19.50;;;;;3.69;60.66;99471.91;2010902;28;1834660;-77
2023/01/18 05:38:20;;;;;;;;;23.00;22.00;;;;;3.69;61.37;99478.84;1953433;28;2852454;-77
2023/01/18 05:39:31;;;;;;;;;24.50;18.00;;;;;3.69;61.30;99476.25;1976199;28;2836746;-77
2023/01/18 05:40:46;;;;;;;;;25.50;18.17;;;;;3.67;61.39;99481.50;1979624;28;2838278;-78
2023/01/18 05:41:57;;;;;;;;;22.00;17.00;;;;;3.68;60.73;99474.56;1954044;28;2821072;-77
2023/01/18 05:43:08;;;;;;;;;22.50;18.00;;;;;3.66;61.28;99479.78;1970875;28;2829385;-78
2023/01/18 05:44:21;;;;;;;;;22.50;16.17;;;;;3.66;61.24;99482.38;1991321;28;2828363;-77
2023/01/18 05:45:33;;;;;;;;;21.60;20.40;;;;;3.65;60.89;99487.63;1989367;28;1844071;-77
2023/01/18 05:46:46;;;;;;;;;22.33;16.50;;;;;3.65;61.34;99493.69;2003998;28;1837851;-77
2023/01/18 05:47:59;;;;;;;;;23.50;19.50;;;;;3.65;61.08;99495.41;1986303;28;1848249;-78
2023/01/18 05:49:10;;;;;;;;;17.50;15.00;;;;;3.64;61.67;99502.34;1961341;28;2800756;-78
2023/01/18 05:50:23;;;;;;;;;21.33;19.83;;;;;3.64;61.77;99506.69;1989915;28;2831535;-77
2023/01/18 05:51:34;;;;;;;;;11.00;10.67;;;;;3.64;61.68;99509.28;1976850;28;3483574;-77
2023/01/18 05:52:45;;;;;;;;;16.00;14.00;;;;;3.62;61.38;99505.88;1988193;28;2794353;-78
2023/01/18 05:53:56;;;;;;;;;16.00;16.00;;;;;3.60;61.63;99514.56;1978586;28;2809591;-78
2023/01/18 05:55:08;;;;;;;;;21.67;17.00;;;;;3.59;61.47;99512.88;1981953;28;2827425;-77
2023/01/18 05:56:18;;;;;;;;;22.00;19.50;;;;;3.58;61.52;99513.75;1989358;28;2827333;-77
2023/01/18 05:57:30;;;;;;;;;23.00;18.33;;;;;3.57;61.50;99513.78;1975288;28;2827418;-77
2023/01/18 05:58:42;;;;;;;;;23.00;21.00;;;;;3.57;61.48;99517.25;1981346;28;3574702;-77
2023/01/18 05:59:54;;;;;;;;;22.60;16.80;;;;;3.57;62.05;99516.38;2009907;28;1830527;-77
2023/01/18 06:01:06;;;;;;;;;21.00;15.50;;;;;3.55;61.59;99519.03;1976759;28;2823598;-77
2023/01/18 06:02:17;;;;;;;;;24.00;17.00;;;;;3.55;61.54;99519.03;1952937;28;3561676;-77
2023/01/18 06:03:29;;;;;;;;;24.00;21.00;;;;;3.54;62.33;99519.06;1993531;28;3581495;-78
2023/01/18 06:04:40;;;;;;;;;20.00;18.50;;;;;3.53;62.05;99518.19;1997341;28;2827437;-77
2023/01/18 06:05:52;;;;;;;;;22.33;19.67;;;;;3.52;62.02;99518.25;1977522;28;3567916;-77
2023/01/18 06:07:04;;;;;;;;;22.00;18.80;;;;;3.52;61.46;99521.69;2009644;28;1841992;-77
2023/01/18 06:08:16;;;;;;;;;21.00;14.50;;;;;3.49;62.04;99520.03;1996606;28;1856564;-77
2023/01/18 06:09:28;;;;;;;;;27.33;18.67;;;;;3.49;61.99;99527.81;1976296;28;3582906;-77
2023/01/18 06:10:41;;;;;;;;;21.20;20.00;;;;;3.49;61.93;99527.81;1995219;28;2839822;-77
2023/01/18 06:11:53;;;;;;;;;23.80;21.20;;;;;3.49;61.62;99526.97;1979137;28;1837795;-77
2023/01/18 06:13:04;;;;;;;;;24.00;21.00;;;;;3.47;62.16;99528.75;1977206;28;2835727;-77
2023/01/18 06:14:15;;;;;;;;;29.00;21.00;;;;;3.46;62.10;99529.63;1962542;28;2841928;-78
2023/01/18 06:15:27;;;;;;;;;21.60;17.80;;;;;3.45;62.59;99528.78;1987062;28;1841972;-77
2023/01/18 06:16:37;;;;;;;;;17.50;16.00;;;;;3.44;62.41;99537.47;1959873;28;2818965;-77